createdAt,value
2022-09-07T00:01:49.972Z,99859.97
2022-09-07T00:05:53.854Z,99852.13
2022-09-07T00:09:58.458Z,99851.41
2022-09-07T00:14:01.804Z,99863.09
2022-09-07T00:18:05.019Z,99853.34
2022-09-07T00:22:08.628Z,99845.41
2022-09-07T00:26:15.391Z,99840.22
2022-09-07T00:30:18.972Z,99836.78
2022-09-07T00:34:22.505Z,99835.94
2022-09-07T00:38:25.861Z,99846.75
2022-09-07T00:42:30.848Z,99837.97
2022-09-07T00:46:34.079Z,99842.59
2022-09-07T00:50:41.151Z,99841.81
2022-09-07T00:54:48.627Z,99838.41
2022-09-07T00:58:54.131Z,99835.00
2022-09-07T01:02:59.557Z,99828.81
2022-09-07T01:07:04.307Z,99829.84
2022-09-07T01:11:07.744Z,99830.94
2022-09-07T01:15:12.600Z,99832.00
2022-09-07T01:19:34.751Z,99827.66
2022-09-07T01:24:24.619Z,99825.19
2022-09-07T01:28:31.121Z,99805.66
2022-09-07T01:32:49.628Z,99819.94
2022-09-07T01:37:01.549Z,99817.28
2022-09-07T01:41:10.341Z,99815.47
2022-09-07T01:45:18.966Z,99810.31
2022-09-07T01:49:26.180Z,99803.34
2022-09-07T01:53:35.738Z,99816.06
2022-09-07T01:57:45.327Z,99809.03
2022-09-07T02:01:54.877Z,99806.41
2022-09-07T02:06:02.497Z,99815.53
2022-09-07T02:10:12.340Z,99810.25
2022-09-07T02:14:19.942Z,99817.41
2022-09-07T02:18:27.952Z,99813.97
2022-09-07T02:22:35.658Z,99810.50
2022-09-07T02:26:42.790Z,99807.19
2022-09-07T02:30:46.180Z,99815.41
2022-09-07T02:34:51.388Z,99818.19
2022-09-07T02:38:54.773Z,99813.06
2022-09-07T02:43:01.163Z,99806.88
2022-09-07T02:47:26.034Z,99813.13
2022-09-07T02:51:36.206Z,99812.31
2022-09-07T02:55:50.990Z,99808.84
2022-09-07T03:00:07.087Z,99802.75
2022-09-07T03:04:15.850Z,99802.75
2022-09-07T03:08:24.904Z,99792.94
2022-09-07T03:12:40.153Z,99787.63
2022-09-07T03:16:43.991Z,99797.41
2022-09-07T03:20:47.265Z,99793.84
2022-09-07T03:24:51.840Z,99792.94
2022-09-07T03:28:55.300Z,99798.31
2022-09-07T03:32:58.491Z,99794.00
2022-09-07T03:37:01.698Z,99793.16
2022-09-07T03:41:08.140Z,99794.13
2022-09-07T03:45:12.612Z,99800.44
2022-09-07T03:49:16.695Z,99799.66
2022-09-07T03:53:19.963Z,99797.06
2022-09-07T03:57:24.550Z,99791.81
2022-09-07T04:01:28.247Z,99797.19
2022-09-07T04:05:33.725Z,99799.88
2022-09-07T04:09:36.961Z,99807.91
2022-09-07T04:13:42.011Z,99806.22
2022-09-07T04:17:45.502Z,99808.94
2022-09-07T04:21:49.136Z,99801.00
2022-09-07T04:25:53.579Z,99806.38
2022-09-07T04:29:58.176Z,99812.66
2022-09-07T04:34:01.872Z,99805.63
2022-09-07T04:38:05.445Z,99814.59
2022-09-07T04:42:08.949Z,99819.97
2022-09-07T04:46:21.898Z,99811.97
2022-09-07T04:50:26.258Z,99814.69
2022-09-07T04:54:29.603Z,99820.03
2022-09-07T04:58:33.004Z,99812.06
2022-09-07T05:02:38.215Z,99811.16
2022-09-07T05:06:41.760Z,99820.03
2022-09-07T05:10:52.695Z,99827.97
2022-09-07T05:14:55.883Z,99833.31
2022-09-07T05:19:02.309Z,99838.56
2022-09-07T05:23:07.220Z,99847.41
2022-09-07T05:27:10.352Z,99851.81
2022-09-07T05:31:17.695Z,99850.88
2022-09-07T05:35:23.002Z,99856.13
2022-09-07T05:39:26.995Z,99846.31
2022-09-07T05:43:31.431Z,99857.72
2022-09-07T05:47:34.745Z,99856.75
2022-09-07T05:51:39.605Z,99852.22
2022-09-07T05:55:42.971Z,99843.22
2022-09-07T05:59:46.332Z,99845.78
2022-09-07T06:03:49.487Z,99858.03
2022-09-07T06:07:54.247Z,99867.66
2022-09-07T06:11:57.649Z,99871.06
2022-09-07T06:16:01.795Z,99869.09
2022-09-07T06:20:06.010Z,99859.13
2022-09-07T06:24:11.515Z,99860.59
2022-09-07T06:28:14.971Z,99858.50
2022-09-07T06:36:41.280Z,99863.44
2022-09-07T06:40:46.107Z,99866.75
2022-09-07T06:44:49.500Z,99868.38
2022-09-07T06:48:54.422Z,99875.31
2022-09-07T06:57:22.459Z,99858.00
2022-09-07T07:01:27.251Z,99862.16
2022-09-07T07:05:31.808Z,99858.19
2022-09-07T07:09:35.186Z,99855.25
2022-09-07T07:13:41.329Z,99862.78
2022-09-07T07:17:47.948Z,99856.84
2022-09-07T07:26:17.896Z,99858.78
2022-09-07T07:30:23.050Z,99872.44
2022-09-07T07:34:26.492Z,99869.28
2022-09-07T07:42:56.495Z,99854.84
2022-09-07T07:47:01.385Z,99861.38
2022-09-07T07:51:11.375Z,99866.13
2022-09-07T07:59:39.178Z,99870.56
2022-09-07T08:03:46.919Z,99865.59
2022-09-07T08:07:50.057Z,99868.50
2022-09-07T08:11:53.414Z,99865.31
2022-09-07T08:15:59.576Z,99875.41
2022-09-07T08:20:04.699Z,99871.16
2022-09-07T08:24:08.149Z,99872.25
2022-09-07T08:28:11.347Z,99869.72
2022-09-07T08:32:14.345Z,99867.56
2022-09-07T08:36:21.681Z,99864.34
2022-09-07T08:40:24.822Z,99855.84
2022-09-07T08:44:33.000Z,99863.34
2022-09-07T08:48:36.803Z,99863.63
2022-09-07T08:52:48.247Z,99850.28
2022-09-07T09:01:34.456Z,99849.81
2022-09-07T09:05:46.649Z,99846.53
2022-09-07T09:10:09.917Z,99848.69
2022-09-07T09:14:21.967Z,99848.00
2022-09-07T09:18:35.202Z,99853.50
2022-09-07T09:22:38.726Z,99851.13
2022-09-07T09:26:46.470Z,99837.19
2022-09-07T09:30:50.469Z,99846.53
2022-09-07T09:35:02.723Z,99845.13
2022-09-07T09:39:26.072Z,99846.06
2022-09-07T09:43:41.957Z,99836.53
2022-09-07T09:47:51.210Z,99839.34
2022-09-07T09:56:20.468Z,99814.97
2022-09-07T10:00:29.872Z,99813.44
2022-09-07T10:04:35.306Z,99808.56
2022-09-07T10:08:38.678Z,99800.22
2022-09-07T10:12:42.548Z,99797.78
2022-09-07T10:16:47.551Z,99791.34
2022-09-07T10:20:50.683Z,99786.13
2022-09-07T10:24:53.916Z,99784.44
2022-09-07T10:29:16.044Z,99776.38
2022-09-07T10:33:27.143Z,99771.84
2022-09-07T10:37:39.309Z,99767.53
2022-09-07T10:41:48.504Z,99761.41
2022-09-07T10:46:08.390Z,99768.22
2022-09-07T10:50:25.852Z,99777.88
2022-09-07T10:54:38.949Z,99771.69
2022-09-07T10:59:04.868Z,99772.09
2022-09-07T11:03:29.935Z,99760.56
2022-09-07T11:07:52.501Z,99753.34
2022-09-07T11:12:02.723Z,99756.97
2022-09-07T11:16:50.566Z,99753.88
2022-09-07T11:20:37.583Z,99748.28
2022-09-07T11:24:47.873Z,99735.25
2022-09-07T11:29:33.144Z,99734.09
2022-09-07T11:34:23.414Z,99724.91
2022-09-07T11:38:14.823Z,99728.50
2022-09-07T11:42:43.520Z,99718.72
2022-09-07T11:46:51.835Z,99717.88
2022-09-07T11:51:00.152Z,99710.56
2022-09-07T11:55:06.882Z,99710.56
2022-09-07T11:59:24.118Z,99702.97
2022-09-07T12:03:45.733Z,99703.66
2022-09-07T12:08:04.032Z,99696.06
2022-09-07T12:12:23.358Z,99696.97
2022-09-07T12:16:43.130Z,99688.34
2022-09-07T12:20:48.261Z,99688.56
2022-09-07T12:24:52.545Z,99685.09
2022-09-07T12:29:18.750Z,99690.94
2022-09-07T12:33:26.456Z,99673.94
2022-09-07T12:37:41.777Z,99672.31
2022-09-07T12:47:03.236Z,99656.16
2022-09-07T12:51:16.093Z,99652.03
2022-09-07T13:00:23.237Z,99651.06
2022-09-07T13:04:47.761Z,99655.75
2022-09-07T13:09:11.740Z,99653.25
2022-09-07T13:14:02.654Z,99645.88
2022-09-07T13:17:45.058Z,99639.78
2022-09-07T13:21:50.101Z,99633.09
2022-09-07T13:26:01.360Z,99633.53
2022-09-07T13:30:20.875Z,99642.41
2022-09-07T13:34:48.184Z,99623.44
2022-09-07T13:38:52.617Z,99624.28
2022-09-07T13:42:59.719Z,99612.81
2022-09-07T13:47:14.968Z,99604.91
2022-09-07T13:51:21.579Z,99601.66
2022-09-07T13:55:32.745Z,99605.56
2022-09-07T13:59:37.626Z,99605.69
2022-09-07T14:03:47.725Z,99604.06
2022-09-07T14:07:50.832Z,99607.75
2022-09-07T14:11:55.899Z,99621.84
2022-09-07T14:16:00.665Z,99617.72
2022-09-07T14:20:05.976Z,99615.78
2022-09-07T14:24:22.771Z,99623.78
2022-09-07T14:28:33.927Z,99620.00
2022-09-07T14:32:39.243Z,99605.38
2022-09-07T14:36:46.216Z,99593.47
2022-09-07T14:40:50.655Z,99586.44
2022-09-07T14:45:20.315Z,99603.25
2022-09-07T14:49:25.218Z,99602.59
2022-09-07T14:53:35.583Z,99591.34
2022-09-07T14:57:38.918Z,99606.94
2022-09-07T15:01:42.193Z,99617.97
2022-09-07T15:05:50.344Z,99613.22
2022-09-07T15:09:53.547Z,99603.88
2022-09-07T15:13:58.737Z,99620.78
2022-09-07T15:18:08.454Z,99625.97
2022-09-07T15:22:13.643Z,99601.50
2022-09-07T15:30:41.929Z,99614.06
2022-09-07T15:34:45.430Z,99610.06
2022-09-07T15:39:05.328Z,99616.91
2022-09-07T15:43:30.062Z,99606.50
2022-09-07T15:52:09.940Z,99574.72
2022-09-07T15:56:14.597Z,99589.63
2022-09-07T16:00:18.108Z,99587.16
2022-09-07T16:04:24.057Z,99585.84
2022-09-07T16:08:32.732Z,99577.94
2022-09-07T16:21:26.256Z,99542.91
2022-09-07T16:25:29.794Z,99543.13
2022-09-07T16:29:34.453Z,99527.09
2022-09-07T16:33:38.102Z,99506.88
2022-09-07T16:38:43.619Z,99495.75
2022-09-07T16:42:04.514Z,99483.66
2022-09-07T16:46:12.916Z,99497.38
2022-09-07T16:50:16.283Z,99502.88
2022-09-07T16:54:21.126Z,99514.78
2022-09-07T16:58:39.445Z,99512.28
2022-09-07T17:02:44.085Z,99497.25
2022-09-07T17:06:47.362Z,99492.25
2022-09-07T17:10:50.584Z,99503.25
2022-09-07T17:14:53.952Z,99526.16
2022-09-07T17:23:22.866Z,99535.00
2022-09-07T17:27:27.261Z,99538.88
2022-09-07T17:35:56.514Z,99552.44
2022-09-07T17:40:00.134Z,99553.63
2022-09-07T17:44:03.336Z,99547.66
2022-09-07T17:48:06.416Z,99551.56
2022-09-07T17:52:10.822Z,99561.84
2022-09-07T17:56:15.688Z,99562.25
2022-09-07T18:00:18.829Z,99565.56
2022-09-07T18:04:22.303Z,99571.25
2022-09-07T18:08:27.452Z,99561.81
2022-09-07T18:12:32.733Z,99566.84
2022-09-07T18:16:36.908Z,99565.31
2022-09-07T18:20:41.308Z,99568.19
2022-09-07T18:24:46.213Z,99569.28
2022-09-07T18:29:13.086Z,99573.22
2022-09-07T18:33:15.319Z,99566.28
2022-09-07T18:37:23.696Z,99559.66
2022-09-07T18:41:28.370Z,99552.78
2022-09-07T18:45:31.648Z,99554.22
2022-09-07T18:49:35.230Z,99547.50
2022-09-07T18:53:39.272Z,99548.81
2022-09-07T18:57:43.932Z,99548.22
2022-09-07T19:01:47.029Z,99542.38
2022-09-07T19:05:50.644Z,99557.00
2022-09-07T19:09:54.143Z,99557.16
2022-09-07T19:13:59.582Z,99557.38
2022-09-07T19:18:04.615Z,99553.88
2022-09-07T19:22:07.972Z,99552.34
2022-09-07T19:26:11.731Z,99560.81
2022-09-07T19:30:17.441Z,99560.25
2022-09-07T19:34:20.688Z,99557.09
2022-09-07T19:38:24.053Z,99563.13
2022-09-07T19:42:27.359Z,99565.41
2022-09-07T19:46:31.829Z,99560.38
2022-09-07T19:50:34.999Z,99553.53
2022-09-07T19:54:38.220Z,99556.47
2022-09-07T19:58:43.966Z,99546.19
2022-09-07T20:02:50.851Z,99539.34
2022-09-07T20:06:53.827Z,99530.66
2022-09-07T20:11:01.568Z,99536.47
2022-09-07T20:15:04.959Z,99530.31
2022-09-07T20:19:09.806Z,99527.00
2022-09-07T20:23:12.997Z,99529.06
2022-09-07T20:27:16.140Z,99537.50
2022-09-07T20:31:19.474Z,99541.31
2022-09-07T20:35:24.089Z,99532.56
2022-09-07T20:39:27.241Z,99538.22
2022-09-07T20:43:31.065Z,99541.16
2022-09-07T20:47:34.203Z,99529.88
2022-09-07T20:51:38.805Z,99534.78
2022-09-07T20:55:41.985Z,99527.88
2022-09-07T20:59:45.163Z,99518.06
2022-09-07T21:03:49.649Z,99510.28
2022-09-07T21:07:54.488Z,99507.03
2022-09-07T21:11:57.675Z,99510.88
2022-09-07T21:16:05.686Z,99502.19
2022-09-07T21:20:09.603Z,99502.47
2022-09-07T21:24:18.117Z,99513.56
2022-09-07T21:28:22.313Z,99503.16
2022-09-07T21:32:25.351Z,99503.47
2022-09-07T21:36:29.271Z,99503.66
2022-09-07T21:40:33.873Z,99503.13
2022-09-07T21:44:36.998Z,99497.38
2022-09-07T21:48:40.656Z,99503.06
2022-09-07T21:52:43.881Z,99491.88
2022-09-07T21:56:49.320Z,99494.72
2022-09-07T22:00:53.435Z,99500.41
2022-09-07T22:04:56.775Z,99488.09
2022-09-07T22:09:00.399Z,99482.06
2022-09-07T22:13:04.801Z,99481.56
2022-09-07T22:17:08.440Z,99478.28
2022-09-07T22:21:14.536Z,99494.53
2022-09-07T22:25:17.676Z,99485.72
2022-09-07T22:29:22.387Z,99475.97
2022-09-07T22:33:25.568Z,99472.59
2022-09-07T22:37:28.756Z,99468.34
2022-09-07T22:41:34.036Z,99474.00
2022-09-07T22:45:38.425Z,99471.66
2022-09-07T22:49:41.608Z,99457.59
2022-09-07T22:53:45.430Z,99453.31
2022-09-07T22:57:48.585Z,99452.53
2022-09-07T23:01:52.953Z,99450.06
2022-09-07T23:05:56.882Z,99439.44
2022-09-07T23:10:00.876Z,99437.84
2022-09-07T23:14:05.826Z,99429.09
2022-09-07T23:18:14.362Z,99424.78
2022-09-07T23:22:18.185Z,99411.59
2022-09-07T23:26:22.350Z,99401.19
2022-09-07T23:30:25.518Z,99396.16
2022-09-07T23:34:30.120Z,99392.84
2022-09-07T23:38:33.824Z,99395.75
2022-09-07T23:42:36.852Z,99393.31
2022-09-07T23:46:40.077Z,99381.94
2022-09-07T23:50:46.128Z,99381.31
2022-09-07T23:54:49.185Z,99384.22
2022-09-07T23:58:52.246Z,99381.91
